sensor_id;sensor_type;location;lat;lon;timestamp;pressure;altitude;pressure_sealevel;temperature
15845;BMP180;50807;52.436;13.346;2023-11-21T00:00:22;100311.00;;;14.20
15845;BMP180;50807;52.436;13.346;2023-11-21T00:00:53;100313.00;;;14.20
15845;BMP180;50807;52.436;13.346;2023-11-21T00:01:25;100310.00;;;14.20
15845;BMP180;50807;52.436;13.346;2023-11-21T00:01:55;100307.00;;;14.20
15845;BMP180;50807;52.436;13.346;2023-11-21T00:02:27;100314.00;;;14.20
15845;BMP180;50807;52.436;13.346;2023-11-21T00:02:58;100311.00;;;14.20
15845;BMP180;50807;52.436;13.346;2023-11-21T00:03:30;100308.00;;;14.20
15845;BMP180;50807;52.436;13.346;2023-11-21T00:04:01;100314.00;;;14.20
15845;BMP180;50807;52.436;13.346;2023-11-21T00:04:32;100314.00;;;14.20
15845;BMP180;50807;52.436;13.346;2023-11-21T00:05:04;100312.00;;;14.20
15845;BMP180;50807;52.436;13.346;2023-11-21T00:05:37;100301.00;;;14.20
15845;BMP180;50807;52.436;13.346;2023-11-21T00:06:08;100318.00;;;14.20
15845;BMP180;50807;52.436;13.346;2023-11-21T00:06:40;100298.00;;;14.20
15845;BMP180;50807;52.436;13.346;2023-11-21T00:07:11;100319.00;;;14.20
15845;BMP180;50807;52.436;13.346;2023-11-21T00:07:43;100318.00;;;14.20
15845;BMP180;50807;52.436;13.346;2023-11-21T00:08:14;100317.00;;;14.20
15845;BMP180;50807;52.436;13.346;2023-11-21T00:08:45;100314.00;;;14.20
15845;BMP180;50807;52.436;13.346;2023-11-21T00:09:16;100317.00;;;14.20
15845;BMP180;50807;52.436;13.346;2023-11-21T00:09:48;100318.00;;;14.20
15845;BMP180;50807;52.436;13.346;2023-11-21T00:10:19;100319.00;;;14.20
15845;BMP180;50807;52.436;13.346;2023-11-21T00:10:51;100317.00;;;14.20
15845;BMP180;50807;52.436;13.346;2023-11-21T00:11:22;100322.00;;;14.20
15845;BMP180;50807;52.436;13.346;2023-11-21T00:11:54;100332.00;;;14.20
15845;BMP180;50807;52.436;13.346;2023-11-21T00:12:25;100323.00;;;14.20
15845;BMP180;50807;52.436;13.346;2023-11-21T00:12:56;100326.00;;;14.20
15845;BMP180;50807;52.436;13.346;2023-11-21T00:13:27;100332.00;;;14.30
15845;BMP180;50807;52.436;13.346;2023-11-21T00:13:58;100321.00;;;14.20
15845;BMP180;50807;52.436;13.346;2023-11-21T00:14:29;100331.00;;;14.20
15845;BMP180;50807;52.436;13.346;2023-11-21T00:15:00;100324.00;;;14.30
15845;BMP180;50807;52.436;13.346;2023-11-21T00:15:32;100332.00;;;14.30
15845;BMP180;50807;52.436;13.346;2023-11-21T00:16:04;100325.00;;;14.20
15845;BMP180;50807;52.436;13.346;2023-11-21T00:16:35;100338.00;;;14.20
15845;BMP180;50807;52.436;13.346;2023-11-21T00:17:06;100334.00;;;14.20
15845;BMP180;50807;52.436;13.346;2023-11-21T00:17:37;100336.00;;;14.20
15845;BMP180;50807;52.436;13.346;2023-11-21T00:18:08;100335.00;;;14.20
15845;BMP180;50807;52.436;13.346;2023-11-21T00:18:40;100337.00;;;14.10
15845;BMP180;50807;52.436;13.346;2023-11-21T00:19:12;100332.00;;;14.10
15845;BMP180;50807;52.436;13.346;2023-11-21T00:19:43;100315.00;;;14.10
15845;BMP180;50807;52.436;13.346;2023-11-21T00:20:13;100337.00;;;14.10
15845;BMP180;50807;52.436;13.346;2023-11-21T00:20:45;100336.00;;;14.10
15845;BMP180;50807;52.436;13.346;2023-11-21T00:21:16;100330.00;;;14.10
15845;BMP180;50807;52.436;13.346;2023-11-21T00:21:47;100332.00;;;14.10
15845;BMP180;50807;52.436;13.346;2023-11-21T00:22:18;100341.00;;;14.10
15845;BMP180;50807;52.436;13.346;2023-11-21T00:22:48;100337.00;;;14.00
15845;BMP180;50807;52.436;13.346;2023-11-21T00:23:20;100337.00;;;14.00
15845;BMP180;50807;52.436;13.346;2023-11-21T00:23:51;100336.00;;;14.00
15845;BMP180;50807;52.436;13.346;2023-11-21T00:24:22;100341.00;;;14.00
15845;BMP180;50807;52.436;13.346;2023-11-21T00:24:52;100330.00;;;14.00
15845;BMP180;50807;52.436;13.346;2023-11-21T00:25:24;100340.00;;;14.00
15845;BMP180;50807;52.436;13.346;2023-11-21T00:25:56;100338.00;;;13.90
15845;BMP180;50807;52.436;13.346;2023-11-21T00:26:27;100344.00;;;13.90
15845;BMP180;50807;52.436;13.346;2023-11-21T00:26:58;100335.00;;;13.90
15845;BMP180;50807;52.436;13.346;2023-11-21T00:27:30;100347.00;;;13.90
15845;BMP180;50807;52.436;13.346;2023-11-21T00:28:00;100344.00;;;13.90
15845;BMP180;50807;52.436;13.346;2023-11-21T00:28:32;100342.00;;;13.90
15845;BMP180;50807;52.436;13.346;2023-11-21T00:29:03;100339.00;;;13.90
15845;BMP180;50807;52.436;13.346;2023-11-21T00:29:38;100342.00;;;13.80
15845;BMP180;50807;52.436;13.346;2023-11-21T00:30:10;100342.00;;;13.80
15845;BMP180;50807;52.436;13.346;2023-11-21T00:30:41;100350.00;;;13.80
15845;BMP180;50807;52.436;13.346;2023-11-21T00:31:13;100344.00;;;13.80
15845;BMP180;50807;52.436;13.346;2023-11-21T00:31:44;100345.00;;;13.80
15845;BMP180;50807;52.436;13.346;2023-11-21T00:32:15;100350.00;;;13.80
15845;BMP180;50807;52.436;13.346;2023-11-21T00:32:46;100346.00;;;13.80
15845;BMP180;50807;52.436;13.346;2023-11-21T00:33:17;100345.00;;;13.80
15845;BMP180;50807;52.436;13.346;2023-11-21T00:33:48;100346.00;;;13.80
15845;BMP180;50807;52.436;13.346;2023-11-21T00:34:19;100350.00;;;13.80
15845;BMP180;50807;52.436;13.346;2023-11-21T00:34:50;100348.00;;;13.80
15845;BMP180;50807;52.436;13.346;2023-11-21T00:35:21;100335.00;;;13.80
15845;BMP180;50807;52.436;13.346;2023-11-21T00:35:52;100347.00;;;13.70
15845;BMP180;50807;52.436;13.346;2023-11-21T00:36:24;100332.00;;;13.70
15845;BMP180;50807;52.436;13.346;2023-11-21T00:36:56;100335.00;;;13.70
15845;BMP180;50807;52.436;13.346;2023-11-21T00:37:27;100344.00;;;13.70
15845;BMP180;50807;52.436;13.346;2023-11-21T00:37:59;100350.00;;;13.70
15845;BMP180;50807;52.436;13.346;2023-11-21T00:38:30;100344.00;;;13.70
15845;BMP180;50807;52.436;13.346;2023-11-21T00:39:01;100352.00;;;13.60
15845;BMP180;50807;52.436;13.346;2023-11-21T00:39:34;100349.00;;;13.60
15845;BMP180;50807;52.436;13.346;2023-11-21T00:40:07;100356.00;;;13.60
15845;BMP180;50807;52.436;13.346;2023-11-21T00:40:39;100359.00;;;13.60
15845;BMP180;50807;52.436;13.346;2023-11-21T00:41:11;100360.00;;;13.50
15845;BMP180;50807;52.436;13.346;2023-11-21T00:41:43;100361.00;;;13.50
15845;BMP180;50807;52.436;13.346;2023-11-21T00:42:15;100352.00;;;13.50
15845;BMP180;50807;52.436;13.346;2023-11-21T00:42:47;100356.00;;;13.50
15845;BMP180;50807;52.436;13.346;2023-11-21T00:43:17;100356.00;;;13.50
15845;BMP180;50807;52.436;13.346;2023-11-21T00:43:49;100361.00;;;13.50
15845;BMP180;50807;52.436;13.346;2023-11-21T00:44:20;100357.00;;;13.50
15845;BMP180;50807;52.436;13.346;2023-11-21T00:44:50;100362.00;;;13.40
15845;BMP180;50807;52.436;13.346;2023-11-21T00:45:21;100360.00;;;13.40
15845;BMP180;50807;52.436;13.346;2023-11-21T00:45:53;100365.00;;;13.40
15845;BMP180;50807;52.436;13.346;2023-11-21T00:46:24;100371.00;;;13.50
15845;BMP180;50807;52.436;13.346;2023-11-21T00:46:57;100364.00;;;13.40
15845;BMP180;50807;52.436;13.346;2023-11-21T00:47:28;100362.00;;;13.40
15845;BMP180;50807;52.436;13.346;2023-11-21T00:47:59;100367.00;;;13.40
15845;BMP180;50807;52.436;13.346;2023-11-21T00:48:30;100368.00;;;13.40
15845;BMP180;50807;52.436;13.346;2023-11-21T00:49:01;100352.00;;;13.40
15845;BMP180;50807;52.436;13.346;2023-11-21T00:49:33;100366.00;;;13.40
15845;BMP180;50807;52.436;13.346;2023-11-21T00:50:04;100365.00;;;13.40
15845;BMP180;50807;52.436;13.346;2023-11-21T00:50:36;100358.00;;;13.30
15845;BMP180;50807;52.436;13.346;2023-11-21T00:51:08;100365.00;;;13.30
15845;BMP180;50807;52.436;13.346;2023-11-21T00:51:39;100363.00;;;13.30
15845;BMP180;50807;52.436;13.346;2023-11-21T00:52:10;100369.00;;;13.30
15845;BMP180;50807;52.436;13.346;2023-11-21T00:52:41;100355.00;;;13.30
15845;BMP180;50807;52.436;13.346;2023-11-21T00:53:12;100367.00;;;13.20
15845;BMP180;50807;52.436;13.346;2023-11-21T00:53:43;100365.00;;;13.20
15845;BMP180;50807;52.436;13.346;2023-11-21T00:54:14;100367.00;;;13.20
15845;BMP180;50807;52.436;13.346;2023-11-21T00:54:47;100374.00;;;13.20
15845;BMP180;50807;52.436;13.346;2023-11-21T00:55:18;100370.00;;;13.20
15845;BMP180;50807;52.436;13.346;2023-11-21T00:55:51;100366.00;;;13.10
15845;BMP180;50807;52.436;13.346;2023-11-21T00:56:24;100363.00;;;13.10
15845;BMP180;50807;52.436;13.346;2023-11-21T00:56:54;100371.00;;;13.10
15845;BMP180;50807;52.436;13.346;2023-11-21T00:57:25;100376.00;;;13.10
15845;BMP180;50807;52.436;13.346;2023-11-21T00:57:56;100371.00;;;13.10
15845;BMP180;50807;52.436;13.346;2023-11-21T00:58:28;100382.00;;;13.10
15845;BMP180;50807;52.436;13.346;2023-11-21T00:59:00;100372.00;;;13.00
15845;BMP180;50807;52.436;13.346;2023-11-21T00:59:31;100376.00;;;13.10
15845;BMP180;50807;52.436;13.346;2023-11-21T01:00:02;100374.00;;;13.00
15845;BMP180;50807;52.436;13.346;2023-11-21T01:00:37;100380.00;;;13.00
15845;BMP180;50807;52.436;13.346;2023-11-21T01:01:10;100375.00;;;13.00
15845;BMP180;50807;52.436;13.346;2023-11-21T01:01:40;100381.00;;;13.00
15845;BMP180;50807;52.436;13.346;2023-11-21T01:02:11;100378.00;;;13.00
15845;BMP180;50807;52.436;13.346;2023-11-21T01:02:42;100380.00;;;13.00
15845;BMP180;50807;52.436;13.346;2023-11-21T01:03:14;100383.00;;;13.00
15845;BMP180;50807;52.436;13.346;2023-11-21T01:03:46;100364.00;;;13.00
15845;BMP180;50807;52.436;13.346;2023-11-21T01:04:17;100387.00;;;13.00
15845;BMP180;50807;52.436;13.346;2023-11-21T01:04:48;100381.00;;;13.00
15845;BMP180;50807;52.436;13.346;2023-11-21T01:05:18;100384.00;;;13.00
15845;BMP180;50807;52.436;13.346;2023-11-21T01:05:51;100389.00;;;13.00
15845;BMP180;50807;52.436;13.346;2023-11-21T01:06:22;100387.00;;;13.00
15845;BMP180;50807;52.436;13.346;2023-11-21T01:06:52;100385.00;;;13.00
15845;BMP180;50807;52.436;13.346;2023-11-21T01:07:23;100392.00;;;12.90
15845;BMP180;50807;52.436;13.346;2023-11-21T01:07:55;100386.00;;;12.90
15845;BMP180;50807;52.436;13.346;2023-11-21T01:08:26;100389.00;;;12.90
15845;BMP180;50807;52.436;13.346;2023-11-21T01:08:57;100378.00;;;12.90
15845;BMP180;50807;52.436;13.346;2023-11-21T01:09:27;100386.00;;;12.90
15845;BMP180;50807;52.436;13.346;2023-11-21T01:09:58;100379.00;;;12.90
15845;BMP180;50807;52.436;13.346;2023-11-21T01:10:30;100388.00;;;12.90
15845;BMP180;50807;52.436;13.346;2023-11-21T01:11:01;100396.00;;;12.90
15845;BMP180;50807;52.436;13.346;2023-11-21T01:11:33;100393.00;;;12.90
15845;BMP180;50807;52.436;13.346;2023-11-21T01:12:07;100381.00;;;12.80
15845;BMP180;50807;52.436;13.346;2023-11-21T01:12:39;100382.00;;;12.90
15845;BMP180;50807;52.436;13.346;2023-11-21T01:13:09;100389.00;;;12.80
15845;BMP180;50807;52.436;13.346;2023-11-21T01:13:41;100405.00;;;12.80
15845;BMP180;50807;52.436;13.346;2023-11-21T01:14:12;100397.00;;;12.90
15845;BMP180;50807;52.436;13.346;2023-11-21T01:14:44;100399.00;;;12.80
15845;BMP180;50807;52.436;13.346;2023-11-21T01:15:16;100403.00;;;12.80
15845;BMP180;50807;52.436;13.346;2023-11-21T01:15:46;100408.00;;;12.80
15845;BMP180;50807;52.436;13.346;2023-11-21T01:16:18;100410.00;;;12.80
15845;BMP180;50807;52.436;13.346;2023-11-21T01:16:49;100412.00;;;12.80
15845;BMP180;50807;52.436;13.346;2023-11-21T01:17:19;100405.00;;;12.80
15845;BMP180;50807;52.436;13.346;2023-11-21T01:17:53;100401.00;;;12.80
15845;BMP180;50807;52.436;13.346;2023-11-21T01:18:24;100400.00;;;12.80
15845;BMP180;50807;52.436;13.346;2023-11-21T01:18:56;100402.00;;;12.80
15845;BMP180;50807;52.436;13.346;2023-11-21T01:19:27;100411.00;;;12.80
15845;BMP180;50807;52.436;13.346;2023-11-21T01:19:59;100412.00;;;12.80
15845;BMP180;50807;52.436;13.346;2023-11-21T01:20:31;100406.00;;;12.80
15845;BMP180;50807;52.436;13.346;2023-11-21T01:21:01;100414.00;;;12.80
15845;BMP180;50807;52.436;13.346;2023-11-21T01:21:32;100407.00;;;12.80
15845;BMP180;50807;52.436;13.346;2023-11-21T01:22:04;100396.00;;;12.80
15845;BMP180;50807;52.436;13.346;2023-11-21T01:22:36;100416.00;;;12.80
15845;BMP180;50807;52.436;13.346;2023-11-21T01:23:06;100409.00;;;12.70
15845;BMP180;50807;52.436;13.346;2023-11-21T01:23:37;100411.00;;;12.80
15845;BMP180;50807;52.436;13.346;2023-11-21T01:24:09;100416.00;;;12.70
15845;BMP180;50807;52.436;13.346;2023-11-21T01:24:40;100405.00;;;12.80
15845;BMP180;50807;52.436;13.346;2023-11-21T01:25:10;100401.00;;;12.70
15845;BMP180;50807;52.436;13.346;2023-11-21T01:25:41;100405.00;;;12.70
15845;BMP180;50807;52.436;13.346;2023-11-21T01:26:13;100397.00;;;12.70
15845;BMP180;50807;52.436;13.346;2023-11-21T01:26:45;100420.00;;;12.70
15845;BMP180;50807;52.436;13.346;2023-11-21T01:27:17;100422.00;;;12.80
15845;BMP180;50807;52.436;13.346;2023-11-21T01:27:49;100409.00;;;12.70
15845;BMP180;50807;52.436;13.346;2023-11-21T01:28:20;100420.00;;;12.80
15845;BMP180;50807;52.436;13.346;2023-11-21T01:28:51;100417.00;;;12.70
15845;BMP180;50807;52.436;13.346;2023-11-21T01:29:22;100418.00;;;12.70
15845;BMP180;50807;52.436;13.346;2023-11-21T01:29:52;100416.00;;;12.70
15845;BMP180;50807;52.436;13.346;2023-11-21T01:30:24;100423.00;;;12.70
15845;BMP180;50807;52.436;13.346;2023-11-21T01:30:56;100421.00;;;12.70
15845;BMP180;50807;52.436;13.346;2023-11-21T01:31:26;100429.00;;;12.70
15845;BMP180;50807;52.436;13.346;2023-11-21T01:32:00;100428.00;;;12.70
15845;BMP180;50807;52.436;13.346;2023-11-21T01:32:30;100425.00;;;12.70
15845;BMP180;50807;52.436;13.346;2023-11-21T01:33:02;100427.00;;;12.70
15845;BMP180;50807;52.436;13.346;2023-11-21T01:33:33;100423.00;;;12.70
15845;BMP180;50807;52.436;13.346;2023-11-21T01:34:04;100424.00;;;12.70
15845;BMP180;50807;52.436;13.346;2023-11-21T01:34:35;100425.00;;;12.60
15845;BMP180;50807;52.436;13.346;2023-11-21T01:35:09;100428.00;;;12.60
15845;BMP180;50807;52.436;13.346;2023-11-21T01:35:41;100423.00;;;12.60
15845;BMP180;50807;52.436;13.346;2023-11-21T01:36:12;100422.00;;;12.60
15845;BMP180;50807;52.436;13.346;2023-11-21T01:36:42;100427.00;;;12.60
15845;BMP180;50807;52.436;13.346;2023-11-21T01:37:13;100422.00;;;12.60
15845;BMP180;50807;52.436;13.346;2023-11-21T01:37:45;100431.00;;;12.60
15845;BMP180;50807;52.436;13.346;2023-11-21T01:38:16;100433.00;;;12.60
15845;BMP180;50807;52.436;13.346;2023-11-21T01:38:48;100428.00;;;12.60
15845;BMP180;50807;52.436;13.346;2023-11-21T01:39:18;100423.00;;;12.60
15845;BMP180;50807;52.436;13.346;2023-11-21T01:39:54;100427.00;;;12.60
15845;BMP180;50807;52.436;13.346;2023-11-21T01:40:25;100430.00;;;12.60
15845;BMP180;50807;52.436;13.346;2023-11-21T01:40:56;100424.00;;;12.60
15845;BMP180;50807;52.436;13.346;2023-11-21T01:41:27;100426.00;;;12.60
15845;BMP180;50807;52.436;13.346;2023-11-21T01:41:59;100433.00;;;12.50
15845;BMP180;50807;52.436;13.346;2023-11-21T01:42:31;100425.00;;;12.60
15845;BMP180;50807;52.436;13.346;2023-11-21T01:43:02;100431.00;;;12.60
15845;BMP180;50807;52.436;13.346;2023-11-21T01:43:33;100433.00;;;12.50
15845;BMP180;50807;52.436;13.346;2023-11-21T01:44:05;100426.00;;;12.50
15845;BMP180;50807;52.436;13.346;2023-11-21T01:44:38;100418.00;;;12.50
15845;BMP180;50807;52.436;13.346;2023-11-21T01:45:09;100436.00;;;12.50
15845;BMP180;50807;52.436;13.346;2023-11-21T01:45:40;100433.00;;;12.50
15845;BMP180;50807;52.436;13.346;2023-11-21T01:46:12;100430.00;;;12.50
15845;BMP180;50807;52.436;13.346;2023-11-21T01:46:43;100434.00;;;12.50
15845;BMP180;50807;52.436;13.346;2023-11-21T01:47:20;100438.00;;;12.40
15845;BMP180;50807;52.436;13.346;2023-11-21T01:47:52;100434.00;;;12.40
15845;BMP180;50807;52.436;13.346;2023-11-21T01:48:24;100417.00;;;12.40
15845;BMP180;50807;52.436;13.346;2023-11-21T01:48:55;100435.00;;;12.50
15845;BMP180;50807;52.436;13.346;2023-11-21T01:49:26;100435.00;;;12.40
15845;BMP180;50807;52.436;13.346;2023-11-21T01:49:58;100442.00;;;12.40
15845;BMP180;50807;52.436;13.346;2023-11-21T01:50:29;100442.00;;;12.50
15845;BMP180;50807;52.436;13.346;2023-11-21T01:51:01;100440.00;;;12.50
15845;BMP180;50807;52.436;13.346;2023-11-21T01:51:32;100442.00;;;12.50
15845;BMP180;50807;52.436;13.346;2023-11-21T01:52:05;100436.00;;;12.40
15845;BMP180;50807;52.436;13.346;2023-11-21T01:52:37;100433.00;;;12.40
15845;BMP180;50807;52.436;13.346;2023-11-21T01:53:11;100440.00;;;12.40
15845;BMP180;50807;52.436;13.346;2023-11-21T01:53:43;100436.00;;;12.40
15845;BMP180;50807;52.436;13.346;2023-11-21T01:54:16;100424.00;;;12.40
15845;BMP180;50807;52.436;13.346;2023-11-21T01:54:48;100430.00;;;12.40
15845;BMP180;50807;52.436;13.346;2023-11-21T01:55:20;100435.00;;;12.40
15845;BMP180;50807;52.436;13.346;2023-11-21T01:55:52;100430.00;;;12.40
15845;BMP180;50807;52.436;13.346;2023-11-21T01:56:24;100436.00;;;12.30
15845;BMP180;50807;52.436;13.346;2023-11-21T01:56:59;100434.00;;;12.30
15845;BMP180;50807;52.436;13.346;2023-11-21T01:57:33;100446.00;;;12.30
15845;BMP180;50807;52.436;13.346;2023-11-21T01:58:04;100443.00;;;12.30
15845;BMP180;50807;52.436;13.346;2023-11-21T01:58:34;100443.00;;;12.30
15845;BMP180;50807;52.436;13.346;2023-11-21T01:59:06;100440.00;;;12.30
15845;BMP180;50807;52.436;13.346;2023-11-21T01:59:38;100442.00;;;12.30
15845;BMP180;50807;52.436;13.346;2023-11-21T02:00:11;100452.00;;;12.30
15845;BMP180;50807;52.436;13.346;2023-11-21T02:00:45;100432.00;;;12.30
15845;BMP180;50807;52.436;13.346;2023-11-21T02:01:19;100448.00;;;12.20
15845;BMP180;50807;52.436;13.346;2023-11-21T02:01:50;100449.00;;;12.20
15845;BMP180;50807;52.436;13.346;2023-11-21T02:02:20;100448.00;;;12.20
15845;BMP180;50807;52.436;13.346;2023-11-21T02:02:51;100450.00;;;12.20
15845;BMP180;50807;52.436;13.346;2023-11-21T02:03:23;100450.00;;;12.30
15845;BMP180;50807;52.436;13.346;2023-11-21T02:03:54;100449.00;;;12.20
15845;BMP180;50807;52.436;13.346;2023-11-21T02:04:26;100434.00;;;12.20
15845;BMP180;50807;52.436;13.346;2023-11-21T02:04:57;100454.00;;;12.20
15845;BMP180;50807;52.436;13.346;2023-11-21T02:05:29;100450.00;;;12.20
15845;BMP180;50807;52.436;13.346;2023-11-21T02:06:00;100450.00;;;12.20
15845;BMP180;50807;52.436;13.346;2023-11-21T02:06:31;100452.00;;;12.20
15845;BMP180;50807;52.436;13.346;2023-11-21T02:07:02;100460.00;;;12.20
15845;BMP180;50807;52.436;13.346;2023-11-21T02:07:35;100448.00;;;12.20
15845;BMP180;50807;52.436;13.346;2023-11-21T02:08:06;100463.00;;;12.20
15845;BMP180;50807;52.436;13.346;2023-11-21T02:08:40;100453.00;;;12.20
15845;BMP180;50807;52.436;13.346;2023-11-21T02:09:13;100451.00;;;12.20
15845;BMP180;50807;52.436;13.346;2023-11-21T02:09:45;100462.00;;;12.20
15845;BMP180;50807;52.436;13.346;2023-11-21T02:10:16;100462.00;;;12.20
15845;BMP180;50807;52.436;13.346;2023-11-21T02:10:47;100449.00;;;12.20
15845;BMP180;50807;52.436;13.346;2023-11-21T02:11:19;100461.00;;;12.20
15845;BMP180;50807;52.436;13.346;2023-11-21T02:11:50;100459.00;;;12.20
15845;BMP180;50807;52.436;13.346;2023-11-21T02:12:22;100459.00;;;12.20
15845;BMP180;50807;52.436;13.346;2023-11-21T02:12:52;100463.00;;;12.20
15845;BMP180;50807;52.436;13.346;2023-11-21T02:13:24;100459.00;;;12.20
15845;BMP180;50807;52.436;13.346;2023-11-21T02:13:55;100461.00;;;12.20
15845;BMP180;50807;52.436;13.346;2023-11-21T02:14:26;100458.00;;;12.20
15845;BMP180;50807;52.436;13.346;2023-11-21T02:14:58;100464.00;;;12.20
15845;BMP180;50807;52.436;13.346;2023-11-21T02:15:30;100461.00;;;12.20
15845;BMP180;50807;52.436;13.346;2023-11-21T02:16:01;100463.00;;;12.20
15845;BMP180;50807;52.436;13.346;2023-11-21T02:16:32;100455.00;;;12.20
15845;BMP180;50807;52.436;13.346;2023-11-21T02:17:04;100459.00;;;12.10
15845;BMP180;50807;52.436;13.346;2023-11-21T02:17:37;100466.00;;;12.10
15845;BMP180;50807;52.436;13.346;2023-11-21T02:18:08;100450.00;;;12.10
15845;BMP180;50807;52.436;13.346;2023-11-21T02:18:40;100468.00;;;12.10
15845;BMP180;50807;52.436;13.346;2023-11-21T02:19:18;100463.00;;;12.10
15845;BMP180;50807;52.436;13.346;2023-11-21T02:19:50;100462.00;;;12.10
15845;BMP180;50807;52.436;13.346;2023-11-21T02:20:22;100453.00;;;12.10
15845;BMP180;50807;52.436;13.346;2023-11-21T02:20:56;100466.00;;;12.10
15845;BMP180;50807;52.436;13.346;2023-11-21T02:21:28;100462.00;;;12.10
15845;BMP180;50807;52.436;13.346;2023-11-21T02:22:00;100461.00;;;12.10
15845;BMP180;50807;52.436;13.346;2023-11-21T02:22:38;100468.00;;;12.00
15845;BMP180;50807;52.436;13.346;2023-11-21T02:23:11;100470.00;;;12.00
15845;BMP180;50807;52.436;13.346;2023-11-21T02:23:43;100470.00;;;12.00
15845;BMP180;50807;52.436;13.346;2023-11-21T02:24:15;100469.00;;;12.00
15845;BMP180;50807;52.436;13.346;2023-11-21T02:24:46;100462.00;;;12.00
15845;BMP180;50807;52.436;13.346;2023-11-21T02:25:17;100470.00;;;12.00
15845;BMP180;50807;52.436;13.346;2023-11-21T02:25:48;100475.00;;;12.00
15845;BMP180;50807;52.436;13.346;2023-11-21T02:26:19;100454.00;;;12.00
15845;BMP180;50807;52.436;13.346;2023-11-21T02:26:51;100471.00;;;12.00
15845;BMP180;50807;52.436;13.346;2023-11-21T02:27:22;100471.00;;;12.00
15845;BMP180;50807;52.436;13.346;2023-11-21T02:27:54;100463.00;;;12.00
15845;BMP180;50807;52.436;13.346;2023-11-21T02:28:25;100473.00;;;12.00
15845;BMP180;50807;52.436;13.346;2023-11-21T02:28:56;100465.00;;;12.00
15845;BMP180;50807;52.436;13.346;2023-11-21T02:29:30;100470.00;;;12.00
15845;BMP180;50807;52.436;13.346;2023-11-21T02:30:02;100460.00;;;12.00
15845;BMP180;50807;52.436;13.346;2023-11-21T02:30:34;100473.00;;;12.00
15845;BMP180;50807;52.436;13.346;2023-11-21T02:31:06;100474.00;;;12.00
15845;BMP180;50807;52.436;13.346;2023-11-21T02:31:40;100469.00;;;12.00
15845;BMP180;50807;52.436;13.346;2023-11-21T02:32:18;100465.00;;;12.00
15845;BMP180;50807;52.436;13.346;2023-11-21T02:32:49;100468.00;;;12.00
15845;BMP180;50807;52.436;13.346;2023-11-21T02:33:20;100453.00;;;12.00
15845;BMP180;50807;52.436;13.346;2023-11-21T02:33:52;100470.00;;;12.00
15845;BMP180;50807;52.436;13.346;2023-11-21T02:34:23;100464.00;;;12.00
15845;BMP180;50807;52.436;13.346;2023-11-21T02:34:55;100463.00;;;12.00
15845;BMP180;50807;52.436;13.346;2023-11-21T02:35:26;100474.00;;;12.00
15845;BMP180;50807;52.436;13.346;2023-11-21T02:35:57;100463.00;;;12.00
15845;BMP180;50807;52.436;13.346;2023-11-21T02:36:29;100472.00;;;12.00
15845;BMP180;50807;52.436;13.346;2023-11-21T02:37:00;100462.00;;;12.00
15845;BMP180;50807;52.436;13.346;2023-11-21T02:37:31;100475.00;;;12.00
15845;BMP180;50807;52.436;13.346;2023-11-21T02:38:02;100471.00;;;12.00
15845;BMP180;50807;52.436;13.346;2023-11-21T02:38:35;100467.00;;;12.00
15845;BMP180;50807;52.436;13.346;2023-11-21T02:39:05;100480.00;;;12.00
15845;BMP180;50807;52.436;13.346;2023-11-21T02:39:38;100448.00;;;12.00
15845;BMP180;50807;52.436;13.346;2023-11-21T02:40:10;100473.00;;;12.00
15845;BMP180;50807;52.436;13.346;2023-11-21T02:40:44;100476.00;;;12.00
15845;BMP180;50807;52.436;13.346;2023-11-21T02:41:15;100476.00;;;12.00
15845;BMP180;50807;52.436;13.346;2023-11-21T02:41:46;100474.00;;;12.00
15845;BMP180;50807;52.436;13.346;2023-11-21T02:42:16;100482.00;;;12.00
15845;BMP180;50807;52.436;13.346;2023-11-21T02:42:50;100433.00;;;12.00
15845;BMP180;50807;52.436;13.346;2023-11-21T02:43:21;100479.00;;;11.90
15845;BMP180;50807;52.436;13.346;2023-11-21T02:43:52;100479.00;;;11.90
15845;BMP180;50807;52.436;13.346;2023-11-21T02:44:22;100483.00;;;11.90
15845;BMP180;50807;52.436;13.346;2023-11-21T02:44:54;100489.00;;;11.90
15845;BMP180;50807;52.436;13.346;2023-11-21T02:45:25;100469.00;;;11.90
15845;BMP180;50807;52.436;13.346;2023-11-21T02:45:56;100487.00;;;11.90
15845;BMP180;50807;52.436;13.346;2023-11-21T02:46:27;100480.00;;;11.90
15845;BMP180;50807;52.436;13.346;2023-11-21T02:46:57;100486.00;;;11.90
15845;BMP180;50807;52.436;13.346;2023-11-21T02:47:30;100484.00;;;11.90
15845;BMP180;50807;52.436;13.346;2023-11-21T02:48:01;100486.00;;;11.90
15845;BMP180;50807;52.436;13.346;2023-11-21T02:48:32;100485.00;;;11.90
15845;BMP180;50807;52.436;13.346;2023-11-21T02:49:05;100479.00;;;11.90
15845;BMP180;50807;52.436;13.346;2023-11-21T02:49:38;100483.00;;;11.80
15845;BMP180;50807;52.436;13.346;2023-11-21T02:50:09;100485.00;;;11.80
15845;BMP180;50807;52.436;13.346;2023-11-21T02:50:40;100481.00;;;11.80
15845;BMP180;50807;52.436;13.346;2023-11-21T02:51:12;100492.00;;;11.80
15845;BMP180;50807;52.436;13.346;2023-11-21T02:51:43;100479.00;;;11.80
15845;BMP180;50807;52.436;13.346;2023-11-21T02:52:14;100487.00;;;11.80
15845;BMP180;50807;52.436;13.346;2023-11-21T02:52:45;100486.00;;;11.80
15845;BMP180;50807;52.436;13.346;2023-11-21T02:53:16;100483.00;;;11.80
15845;BMP180;50807;52.436;13.346;2023-11-21T02:53:48;100484.00;;;11.80
15845;BMP180;50807;52.436;13.346;2023-11-21T02:54:21;100490.00;;;11.80
15845;BMP180;50807;52.436;13.346;2023-11-21T02:54:52;100491.00;;;11.80
15845;BMP180;50807;52.436;13.346;2023-11-21T02:55:24;100479.00;;;11.90
15845;BMP180;50807;52.436;13.346;2023-11-21T02:55:55;100479.00;;;11.80
15845;BMP180;50807;52.436;13.346;2023-11-21T02:56:26;100482.00;;;11.80
15845;BMP180;50807;52.436;13.346;2023-11-21T02:56:57;100488.00;;;11.80